Time;durP1;ratioP1;P1;durP2;ratioP2;P2;SDS_P1;SDS_P2;PMS_P1;PMS_P2;Temp;Humidity;BMP_temperature;BMP_pressure;BME280_temperature;BME280_humidity;BME280_pressure;Samples;Min_cycle;Max_cycle;Signal;HPM_P1;HPM_P2
2021/03/29 00:00:11;;;;;;;18.93;4.10;;;10.20;1.00;;;;;;5061236;28;20452;-84
2021/03/29 00:02:36;;;;;;;14.03;3.47;;;10.30;1.00;;;;;;5060530;28;20524;-84
2021/03/29 00:05:03;;;;;;;6.00;3.10;;;10.30;1.00;;;;;;5054036;28;20496;-85
2021/03/29 00:07:31;;;;;;;8.07;2.30;;;10.30;1.00;;;;;;5043717;28;20182;-83
2021/03/29 00:09:58;;;;;;;12.40;2.90;;;10.30;1.00;;;;;;5044540;28;21440;-84
2021/03/29 00:12:24;;;;;;;8.27;3.07;;;10.30;1.00;;;;;;5042398;28;20478;-84
2021/03/29 00:14:52;;;;;;;10.83;3.60;;;10.50;1.00;;;;;;5044462;28;20536;-83
2021/03/29 00:17:19;;;;;;;9.83;3.43;;;10.40;1.00;;;;;;5043573;28;20444;-84
2021/03/29 00:19:46;;;;;;;8.73;2.90;;;10.40;1.00;;;;;;5046040;28;20665;-84
2021/03/29 00:22:12;;;;;;;10.17;4.63;;;10.40;1.00;;;;;;5045818;28;20451;-84
2021/03/29 00:24:38;;;;;;;6.80;2.97;;;10.40;1.00;;;;;;5044301;28;20448;-84
2021/03/29 00:27:05;;;;;;;9.73;3.47;;;10.40;1.00;;;;;;5043214;28;20191;-84
2021/03/29 00:29:30;;;;;;;10.60;3.30;;;10.50;1.00;;;;;;5045261;28;20448;-84
2021/03/29 00:31:58;;;;;;;7.93;3.43;;;10.50;1.00;;;;;;5045001;28;20503;-84
2021/03/29 00:34:23;;;;;;;7.80;3.30;;;10.50;1.00;;;;;;5043041;28;20269;-84
2021/03/29 00:36:51;;;;;;;10.27;3.30;;;10.50;1.00;;;;;;5044993;28;20453;-82
2021/03/29 00:39:18;;;;;;;6.43;2.87;;;10.50;1.00;;;;;;5041390;28;20586;-84
2021/03/29 00:41:44;;;;;;;7.47;3.40;;;10.60;1.00;;;;;;5039119;28;20992;-83
2021/03/29 00:44:11;;;;;;;13.53;3.97;;;10.60;1.00;;;;;;5044214;28;20467;-83
2021/03/29 00:46:40;;;;;;;13.97;4.57;;;10.60;1.00;;;;;;5047831;28;20436;-85
2021/03/29 00:49:06;;;;;;;11.30;3.50;;;10.60;1.00;;;;;;5052133;28;20469;-85
2021/03/29 00:51:35;;;;;;;7.53;3.37;;;10.60;1.00;;;;;;5048161;28;20462;-86
2021/03/29 00:54:05;;;;;;;12.13;4.17;;;10.60;1.00;;;;;;5048840;28;20979;-87
2021/03/29 00:56:33;;;;;;;6.87;3.40;;;10.60;1.00;;;;;;5038681;28;20466;-86
2021/03/29 00:58:59;;;;;;;11.60;3.20;;;10.60;1.00;;;;;;5041832;28;20514;-86
2021/03/29 01:01:26;;;;;;;19.43;4.53;;;10.60;1.00;;;;;;5048502;28;21297;-85
2021/03/29 01:03:58;;;;;;;13.57;4.27;;;10.50;1.00;;;;;;5043324;28;20452;-83
2021/03/29 01:06:28;;;;;;;11.70;3.60;;;10.40;1.00;;;;;;5042325;28;20891;-86
2021/03/29 01:08:57;;;;;;;12.10;3.70;;;10.50;1.00;;;;;;5055705;28;21910;-85
2021/03/29 01:11:25;;;;;;;9.00;3.40;;;10.60;1.00;;;;;;5039912;28;20445;-87
2021/03/29 01:14:01;;;;;;;15.80;3.80;;;10.50;1.00;;;;;;5042395;28;20490;-85
2021/03/29 01:16:32;;;;;;;13.17;4.47;;;10.50;1.00;;;;;;5042735;28;20440;-85
2021/03/29 01:18:59;;;;;;;12.63;3.87;;;10.50;1.00;;;;;;5046644;28;20589;-86
2021/03/29 01:21:43;;;;;;;10.90;3.50;;;10.40;1.00;;;;;;5041410;28;20455;-86
2021/03/29 01:24:33;;;;;;;13.00;4.40;;;10.30;1.00;;;;;;5039825;28;20449;-85
2021/03/29 01:26:59;;;;;;;8.37;4.03;;;10.20;1.00;;;;;;5039414;28;20452;-85
2021/03/29 01:29:30;;;;;;;10.10;4.17;;;10.20;1.00;;;;;;5058415;27;20832;-84
2021/03/29 01:32:02;;;;;;;12.30;4.33;;;10.20;1.00;;;;;;5045033;28;20526;-85
2021/03/29 01:34:31;;;;;;;10.60;4.20;;;10.10;1.00;;;;;;5041907;28;20901;-85
2021/03/29 01:36:59;;;;;;;10.53;3.70;;;10.20;1.00;;;;;;5043285;28;20448;-84
2021/03/29 01:39:27;;;;;;;16.03;4.50;;;10.20;1.00;;;;;;5040808;28;20463;-85
2021/03/29 01:41:54;;;;;;;9.10;4.10;;;10.20;1.00;;;;;;5039189;28;20461;-84
2021/03/29 01:44:20;;;;;;;9.93;4.40;;;10.20;1.00;;;;;;5039358;28;20443;-84
2021/03/29 01:46:47;;;;;;;11.60;3.87;;;10.10;1.00;;;;;;5047349;28;20448;-84
2021/03/29 01:49:13;;;;;;;12.63;3.83;;;10.10;1.00;;;;;;5044352;28;20496;-85
2021/03/29 01:51:40;;;;;;;7.80;3.57;;;10.00;1.00;;;;;;5049905;28;20526;-84
2021/03/29 01:54:06;;;;;;;10.23;3.50;;;10.10;1.00;;;;;;5044650;28;20614;-84
2021/03/29 01:56:32;;;;;;;10.90;3.80;;;10.10;1.00;;;;;;5050824;28;20472;-84
2021/03/29 01:58:58;;;;;;;10.87;4.40;;;10.00;1.00;;;;;;5047686;28;25814;-83
2021/03/29 02:01:24;;;;;;;14.03;5.10;;;9.90;1.00;;;;;;5047453;28;20640;-83
2021/03/29 02:03:50;;;;;;;7.77;3.63;;;10.00;1.00;;;;;;5041447;28;20454;-84
2021/03/29 02:06:16;;;;;;;9.97;4.63;;;10.10;1.00;;;;;;5043982;28;20486;-83
2021/03/29 02:08:43;;;;;;;8.43;3.83;;;10.20;1.00;;;;;;5045116;28;21509;-84
2021/03/29 02:11:09;;;;;;;9.13;4.17;;;10.10;1.00;;;;;;5045303;28;20467;-84
2021/03/29 02:13:39;;;;;;;12.13;3.73;;;10.00;1.00;;;;;;5044521;28;20474;-83
2021/03/29 02:16:07;;;;;;;10.50;3.70;;;10.10;1.00;;;;;;5054709;28;20482;-84
2021/03/29 02:18:44;;;;;;;6.63;3.43;;;10.00;1.00;;;;;;5043949;28;20534;-84
2021/03/29 02:21:16;;;;;;;12.27;4.40;;;9.90;1.00;;;;;;5044573;28;21657;-83
2021/03/29 02:23:46;;;;;;;12.00;4.50;;;9.90;1.00;;;;;;5040801;28;20853;-85
2021/03/29 02:26:12;;;;;;;16.87;3.67;;;9.90;1.00;;;;;;5041298;28;20982;-84
2021/03/29 02:28:40;;;;;;;10.23;3.50;;;9.90;1.00;;;;;;5041128;28;20491;-84
2021/03/29 02:31:07;;;;;;;11.20;3.60;;;9.90;1.00;;;;;;5043079;28;20451;-85
2021/03/29 02:33:33;;;;;;;13.50;3.60;;;9.80;1.00;;;;;;5042091;28;20639;-85
2021/03/29 02:35:59;;;;;;;11.83;4.20;;;9.80;1.00;;;;;;5042519;28;20468;-84
2021/03/29 02:38:25;;;;;;;9.37;3.90;;;9.80;1.00;;;;;;5044469;28;20469;-84
2021/03/29 02:40:54;;;;;;;11.10;3.70;;;9.80;1.00;;;;;;5041905;28;20895;-83
2021/03/29 02:43:21;;;;;;;11.97;3.10;;;9.90;1.00;;;;;;5041380;28;20455;-84
2021/03/29 02:45:55;;;;;;;13.70;3.43;;;9.90;1.00;;;;;;5042423;28;21588;-85
2021/03/29 02:48:24;;;;;;;11.63;3.40;;;9.80;1.00;;;;;;5043965;28;20466;-84
2021/03/29 02:50:52;;;;;;;13.60;3.80;;;9.80;1.00;;;;;;5043153;28;20467;-84
2021/03/29 02:53:24;;;;;;;7.43;3.43;;;9.90;1.00;;;;;;5040893;28;20638;-84
2021/03/29 02:55:51;;;;;;;8.73;3.70;;;10.00;1.00;;;;;;5040544;28;20453;-85
2021/03/29 02:58:23;;;;;;;12.50;3.70;;;9.90;1.00;;;;;;5041925;28;20453;-84
2021/03/29 03:00:49;;;;;;;5.00;2.97;;;9.80;1.00;;;;;;5042641;28;20797;-84
2021/03/29 03:03:15;;;;;;;7.73;4.40;;;9.70;1.00;;;;;;5043600;28;20463;-85
2021/03/29 03:05:43;;;;;;;8.23;3.87;;;9.80;1.00;;;;;;5043360;28;20696;-84
2021/03/29 03:08:09;;;;;;;7.87;3.63;;;9.90;1.00;;;;;;5044552;28;20445;-85
2021/03/29 03:10:35;;;;;;;9.63;2.83;;;9.90;1.00;;;;;;5041298;28;20479;-83
2021/03/29 03:13:04;;;;;;;10.30;3.80;;;9.80;1.00;;;;;;5041147;28;20589;-83
2021/03/29 03:15:31;;;;;;;15.00;3.30;;;9.90;1.00;;;;;;5042397;28;20449;-84
2021/03/29 03:18:00;;;;;;;9.40;2.87;;;9.80;1.00;;;;;;5038563;28;20448;-84
2021/03/29 03:20:28;;;;;;;6.80;3.70;;;9.80;1.00;;;;;;5042132;28;20463;-83
2021/03/29 03:22:58;;;;;;;9.60;3.17;;;9.80;1.00;;;;;;5039425;28;21434;-84
2021/03/29 03:25:26;;;;;;;8.77;3.13;;;9.90;1.00;;;;;;5040472;28;20583;-84
2021/03/29 03:27:53;;;;;;;8.73;3.27;;;9.90;1.00;;;;;;5042326;28;21016;-84
2021/03/29 03:30:28;;;;;;;10.13;3.53;;;9.90;1.00;;;;;;5041658;28;20463;-82
2021/03/29 03:32:55;;;;;;;6.50;2.80;;;9.90;1.00;;;;;;5042025;28;20457;-84
2021/03/29 03:35:22;;;;;;;6.93;2.63;;;9.90;1.00;;;;;;5041100;28;20890;-85
2021/03/29 03:38:15;;;;;;;10.17;4.30;;;9.90;1.00;;;;;;5040931;28;20480;-84
2021/03/29 03:40:45;;;;;;;10.63;3.60;;;9.90;1.00;;;;;;5041442;28;20478;-83
2021/03/29 03:43:13;;;;;;;9.47;2.80;;;9.80;1.00;;;;;;5039673;28;20588;-83
2021/03/29 03:45:48;;;;;;;7.57;2.60;;;9.80;1.00;;;;;;5044606;28;20459;-84
2021/03/29 03:48:16;;;;;;;8.87;2.90;;;9.70;1.00;;;;;;5043849;28;21386;-84
2021/03/29 03:50:46;;;;;;;7.13;3.07;;;9.70;1.00;;;;;;5043159;28;20465;-85
2021/03/29 03:53:12;;;;;;;7.43;2.87;;;9.70;1.00;;;;;;5054143;28;20471;-83
2021/03/29 03:55:38;;;;;;;13.40;3.40;;;9.60;1.00;;;;;;5053237;28;20433;-85
2021/03/29 03:58:04;;;;;;;9.53;2.97;;;9.70;1.00;;;;;;5037117;28;20525;-84
2021/03/29 04:00:31;;;;;;;11.40;3.23;;;9.70;1.00;;;;;;5041663;28;20465;-85
2021/03/29 04:02:56;;;;;;;6.00;2.90;;;9.70;1.00;;;;;;5037702;28;20203;-84
2021/03/29 04:05:22;;;;;;;8.47;2.90;;;9.80;1.00;;;;;;5039466;28;20477;-84
2021/03/29 04:07:50;;;;;;;5.33;2.57;;;9.70;1.00;;;;;;5047763;28;20198;-83
2021/03/29 04:13:17;;;;;;;6.37;2.93;;;9.80;1.00;;;;;;5033460;28;20492;-84
2021/03/29 04:15:42;;;;;;;11.47;2.77;;;9.80;1.00;;;;;;5036840;28;20468;-84
2021/03/29 04:18:09;;;;;;;6.27;2.73;;;9.70;1.00;;;;;;5052781;28;20450;-83
2021/03/29 04:20:35;;;;;;;5.93;2.67;;;9.70;1.00;;;;;;5038132;28;20201;-84
2021/03/29 04:23:01;;;;;;;8.97;3.20;;;9.80;1.00;;;;;;5043632;28;20972;-84
2021/03/29 04:25:27;;;;;;;5.30;2.50;;;9.70;1.00;;;;;;5041665;28;20574;-83
2021/03/29 04:27:52;;;;;;;8.10;2.60;;;9.70;1.00;;;;;;5042367;28;20192;-85
2021/03/29 04:30:19;;;;;;;13.07;3.90;;;9.60;1.00;;;;;;5042505;28;20788;-83
2021/03/29 04:32:49;;;;;;;7.90;3.00;;;9.50;1.00;;;;;;5041736;28;20679;-85
2021/03/29 04:35:16;;;;;;;13.70;3.70;;;9.50;1.00;;;;;;5040679;28;21537;-84
2021/03/29 04:37:42;;;;;;;5.27;2.83;;;9.70;1.00;;;;;;5043534;28;20465;-86
2021/03/29 04:40:08;;;;;;;6.93;3.23;;;9.70;1.00;;;;;;5047031;28;20651;-85
2021/03/29 04:42:34;;;;;;;7.60;2.90;;;9.60;1.00;;;;;;5040300;28;20204;-85
2021/03/29 04:45:00;;;;;;;8.67;2.80;;;9.50;1.00;;;;;;5049849;28;20448;-84
2021/03/29 04:47:26;;;;;;;10.93;3.10;;;9.50;1.00;;;;;;5043882;28;20449;-85
2021/03/29 04:49:54;;;;;;;11.30;2.87;;;9.40;1.00;;;;;;5050385;28;20209;-82
2021/03/29 04:52:19;;;;;;;10.47;4.70;;;9.50;1.00;;;;;;5058118;28;20557;-85
2021/03/29 04:54:45;;;;;;;10.50;2.80;;;9.50;1.00;;;;;;5055552;28;20495;-84
2021/03/29 04:57:11;;;;;;;7.70;3.27;;;9.50;1.00;;;;;;5053266;28;20352;-84
2021/03/29 04:59:36;;;;;;;6.43;2.90;;;9.50;1.00;;;;;;5053766;28;20194;-84
2021/03/29 05:02:02;;;;;;;8.63;2.20;;;9.40;1.00;;;;;;5043765;28;20656;-84
2021/03/29 05:04:28;;;;;;;8.83;2.87;;;9.70;1.00;;;;;;5041911;28;20193;-84
2021/03/29 05:06:54;;;;;;;14.67;4.37;;;9.70;1.00;;;;;;5050458;28;21084;-83
2021/03/29 05:09:19;;;;;;;10.20;2.60;;;9.60;1.00;;;;;;5045231;28;20634;-84
2021/03/29 05:11:53;;;;;;;10.23;3.10;;;9.60;1.00;;;;;;5044220;28;20647;-85
2021/03/29 05:14:19;;;;;;;11.70;2.97;;;9.50;1.00;;;;;;5044912;28;20212;-83
2021/03/29 05:16:46;;;;;;;11.60;4.37;;;9.80;1.00;;;;;;5041074;28;21005;-83
2021/03/29 05:19:12;;;;;;;9.87;2.77;;;9.90;1.00;;;;;;5042707;28;20452;-83
2021/03/29 05:21:38;;;;;;;8.70;2.70;;;9.80;1.00;;;;;;5039572;28;20496;-84
2021/03/29 05:24:05;;;;;;;11.80;2.93;;;9.60;1.00;;;;;;5036903;28;21326;-83
2021/03/29 05:26:31;;;;;;;5.37;3.10;;;9.80;1.00;;;;;;5040745;28;20459;-84
2021/03/29 05:28:57;;;;;;;10.63;3.13;;;9.80;1.00;;;;;;5045095;28;20445;-83
2021/03/29 05:31:23;;;;;;;6.20;2.70;;;9.80;1.00;;;;;;5043955;28;20448;-89
2021/03/29 05:33:49;;;;;;;6.23;4.60;;;9.80;1.00;;;;;;5043142;28;20232;-88
2021/03/29 05:36:15;;;;;;;3.60;2.30;;;9.70;1.00;;;;;;5042287;28;20546;-90
2021/03/29 05:38:45;;;;;;;10.07;2.80;;;9.70;1.00;;;;;;5042213;28;20435;-89
2021/03/29 05:41:12;;;;;;;7.20;2.30;;;9.80;1.00;;;;;;5044400;28;20497;-89
2021/03/29 05:43:42;;;;;;;13.73;2.80;;;10.00;1.00;;;;;;5035806;28;20448;-83
2021/03/29 05:46:09;;;;;;;4.33;2.70;;;9.90;1.00;;;;;;5042997;28;20459;-84
2021/03/29 05:48:36;;;;;;;18.27;2.90;;;9.80;1.00;;;;;;5045009;28;20451;-83
2021/03/29 05:51:03;;;;;;;7.80;2.90;;;9.80;1.00;;;;;;5040797;28;20481;-83
2021/03/29 05:53:29;;;;;;;13.30;3.83;;;9.80;1.00;;;;;;5044210;28;20576;-82
2021/03/29 05:55:56;;;;;;;8.83;2.60;;;9.90;1.00;;;;;;5043804;28;20926;-82
2021/03/29 06:00:51;;;;;;;5.30;2.33;;;9.80;1.00;;;;;;5041822;28;20443;-82
2021/03/29 06:03:37;;;;;;;5.80;2.90;;;9.70;1.00;;;;;;5040966;28;20486;-82
2021/03/29 06:06:19;;;;;;;7.07;2.70;;;9.80;1.00;;;;;;5043030;28;20464;-83
2021/03/29 06:08:50;;;;;;;3.53;2.03;;;9.80;1.00;;;;;;5050540;28;20566;-82
2021/03/29 06:11:23;;;;;;;6.93;2.13;;;10.00;1.00;;;;;;5043793;28;20466;-80
2021/03/29 06:14:15;;;;;;;9.10;3.00;;;10.00;1.00;;;;;;5044685;28;20553;-80
2021/03/29 06:16:53;;;;;;;7.50;2.20;;;9.90;1.00;;;;;;5039944;28;20439;-81
2021/03/29 06:19:41;;;;;;;8.07;2.70;;;9.90;1.00;;;;;;5039583;28;20480;-81
2021/03/29 06:22:34;;;;;;;12.10;2.90;;;10.00;1.00;;;;;;5039601;28;20457;-80
2021/03/29 06:25:05;;;;;;;11.43;2.73;;;10.00;1.00;;;;;;5035701;28;20445;-80
2021/03/29 06:27:49;;;;;;;11.57;3.30;;;10.10;1.00;;;;;;5044959;28;20584;-81
2021/03/29 06:30:23;;;;;;;8.67;2.90;;;10.20;1.00;;;;;;5045982;28;20523;-80
2021/03/29 06:33:04;;;;;;;10.27;2.70;;;10.20;1.00;;;;;;5037057;28;23267;-81
2021/03/29 06:35:36;;;;;;;5.00;1.97;;;10.20;1.00;;;;;;5039109;28;20591;-83
2021/03/29 06:38:09;;;;;;;7.40;2.33;;;10.30;1.00;;;;;;5044817;28;21464;-82
2021/03/29 06:40:38;;;;;;;7.53;2.83;;;10.40;1.00;;;;;;5045099;28;20918;-81
2021/03/29 06:43:20;;;;;;;14.67;2.87;;;10.50;1.00;;;;;;5042021;28;20508;-81
2021/03/29 06:45:47;;;;;;;4.53;2.83;;;10.50;1.00;;;;;;5045273;28;20448;-80
2021/03/29 06:48:26;;;;;;;7.03;2.47;;;10.50;1.00;;;;;;5042840;28;20453;-81
2021/03/29 06:51:16;;;;;;;10.67;3.30;;;10.60;1.00;;;;;;5041923;28;20491;-81
2021/03/29 06:53:55;;;;;;;9.63;3.00;;;10.70;1.00;;;;;;5038209;28;20500;-81
2021/03/29 06:56:51;;;;;;;8.03;2.40;;;10.80;1.00;;;;;;5041406;28;20460;-81
2021/03/29 06:59:23;;;;;;;17.80;3.17;;;10.90;1.00;;;;;;5039266;28;20590;-80
2021/03/29 07:01:54;;;;;;;8.60;3.03;;;11.00;1.00;;;;;;5039985;28;20901;-80
2021/03/29 07:04:21;;;;;;;9.80;2.77;;;10.90;1.00;;;;;;5039875;28;20444;-81
2021/03/29 07:06:48;;;;;;;4.87;2.60;;;10.90;1.00;;;;;;5040384;28;20470;-83
2021/03/29 07:09:15;;;;;;;10.10;3.40;;;10.90;1.00;;;;;;5040920;28;20448;-84
2021/03/29 07:11:42;;;;;;;5.70;2.50;;;11.00;1.00;;;;;;5043794;28;20849;-83
2021/03/29 07:14:08;;;;;;;12.80;2.83;;;11.10;1.00;;;;;;5040008;28;20575;-84
2021/03/29 07:16:34;;;;;;;9.60;2.77;;;11.20;1.00;;;;;;5042250;28;20444;-88
2021/03/29 07:19:05;;;;;;;6.10;2.47;;;11.30;1.00;;;;;;5042030;28;21025;-84
2021/03/29 07:21:31;;;;;;;7.87;2.73;;;11.40;1.00;;;;;;5043680;28;20857;-88
2021/03/29 07:24:08;;;;;;;18.60;3.13;;;11.40;1.00;;;;;;5041282;28;20445;-88
2021/03/29 07:26:48;;;;;;;7.60;2.57;;;11.50;1.00;;;;;;5041564;28;20445;-89
2021/03/29 07:29:28;;;;;;;11.57;3.00;;;11.60;1.00;;;;;;5047484;28;20437;-84
2021/03/29 07:31:59;;;;;;;14.00;2.90;;;11.70;1.00;;;;;;5045996;28;20455;-84
2021/03/29 07:34:47;;;;;;;7.40;2.30;;;11.80;1.00;;;;;;5041633;28;21021;-83
2021/03/29 07:37:35;;;;;;;11.97;3.70;;;11.90;1.00;;;;;;5041786;28;21087;-85
2021/03/29 07:40:09;;;;;;;8.73;2.67;;;12.00;1.00;;;;;;5037280;28;20436;-84
2021/03/29 07:42:36;;;;;;;10.63;3.47;;;12.10;1.00;;;;;;5039048;28;20800;-83
2021/03/29 07:45:10;;;;;;;10.70;2.57;;;12.20;1.00;;;;;;5039858;28;20445;-83
2021/03/29 07:47:46;;;;;;;6.70;3.00;;;12.30;1.00;;;;;;5042232;28;20464;-83
2021/03/29 07:50:37;;;;;;;7.77;2.57;;;12.40;1.00;;;;;;5036400;28;20731;-86
2021/03/29 07:53:20;;;;;;;6.43;2.67;;;12.50;1.00;;;;;;5038523;28;20471;-84
2021/03/29 07:55:54;;;;;;;7.20;1.90;;;12.60;1.00;;;;;;5038022;28;20553;-85
2021/03/29 07:58:21;;;;;;;9.17;2.33;;;12.80;1.00;;;;;;5037300;28;21234;-84
2021/03/29 08:00:51;;;;;;;6.60;2.03;;;12.80;1.00;;;;;;5038788;28;20459;-83
2021/03/29 08:03:16;;;;;;;10.60;2.40;;;12.90;1.00;;;;;;5039580;28;21114;-85
2021/03/29 08:05:50;;;;;;;7.27;2.00;;;13.00;1.00;;;;;;5040608;28;20474;-87
2021/03/29 08:08:27;;;;;;;7.80;3.00;;;13.10;1.00;;;;;;5043237;28;20239;-83
2021/03/29 08:11:14;;;;;;;3.90;2.33;;;12.90;1.00;;;;;;5049531;28;20452;-84
2021/03/29 08:13:52;;;;;;;5.07;2.23;;;12.80;1.00;;;;;;5037188;28;20565;-83
2021/03/29 08:16:20;;;;;;;11.53;2.93;;;12.70;1.00;;;;;;5040103;28;20447;-86
2021/03/29 08:19:19;;;;;;;5.60;2.17;;;12.70;1.00;;;;;;5038821;28;22302;-83
2021/03/29 08:22:08;;;;;;;10.67;2.40;;;12.80;1.00;;;;;;5036946;28;20464;-85
2021/03/29 08:24:42;;;;;;;6.63;2.60;;;12.80;1.00;;;;;;5039686;28;20436;-88
2021/03/29 08:27:29;;;;;;;5.17;2.43;;;12.90;1.00;;;;;;5046522;28;20852;-86
2021/03/29 08:30:14;;;;;;;7.50;2.70;;;13.10;1.00;;;;;;5050668;28;21491;-84
2021/03/29 08:32:40;;;;;;;10.67;2.53;;;13.30;1.00;;;;;;5056616;28;20537;-83
2021/03/29 08:35:18;;;;;;;6.77;2.63;;;13.40;1.00;;;;;;5060318;27;20456;-84
2021/03/29 08:37:49;;;;;;;9.03;2.60;;;13.50;1.00;;;;;;5043098;28;20827;-85
2021/03/29 08:40:24;;;;;;;6.83;2.33;;;13.50;1.00;;;;;;5041358;28;20463;-84
2021/03/29 08:42:52;;;;;;;6.50;2.33;;;13.50;1.00;;;;;;5038846;28;20544;-83
2021/03/29 08:45:22;;;;;;;12.50;2.20;;;13.60;1.00;;;;;;5045185;28;20479;-84
2021/03/29 08:47:52;;;;;;;11.00;2.30;;;13.70;1.00;;;;;;5036668;28;20559;-83
2021/03/29 08:50:23;;;;;;;11.37;2.47;;;13.80;1.00;;;;;;5041346;28;20473;-84
2021/03/29 08:52:54;;;;;;;8.87;2.80;;;14.00;1.00;;;;;;5039471;28;20483;-85
2021/03/29 08:55:28;;;;;;;5.50;2.63;;;14.00;1.00;;;;;;5043714;28;20471;-85
2021/03/29 08:57:55;;;;;;;5.40;1.90;;;14.20;1.00;;;;;;5049245;28;20472;-84
2021/03/29 09:00:26;;;;;;;4.20;2.03;;;14.30;1.00;;;;;;5049904;28;20449;-83
2021/03/29 09:02:52;;;;;;;4.83;3.00;;;14.30;1.00;;;;;;5055193;28;20852;-84
2021/03/29 09:05:20;;;;;;;7.80;2.30;;;14.50;1.00;;;;;;5046722;28;20447;-82
2021/03/29 09:07:48;;;;;;;10.13;2.57;;;14.50;1.00;;;;;;5045757;28;20487;-85
2021/03/29 09:10:20;;;;;;;5.03;2.03;;;14.50;1.00;;;;;;5046148;28;20481;-85
2021/03/29 09:13:02;;;;;;;10.43;2.63;;;14.40;1.00;;;;;;5038901;28;20495;-86
2021/03/29 09:15:39;;;;;;;10.40;3.60;;;14.30;1.00;;;;;;5044535;28;20781;-86
2021/03/29 09:18:10;;;;;;;7.90;2.40;;;14.30;1.00;;;;;;5047293;28;20462;-84
2021/03/29 09:20:48;;;;;;;5.27;2.70;;;14.10;1.00;;;;;;5041518;28;20470;-84
2021/03/29 09:23:17;;;;;;;11.60;2.77;;;14.00;1.00;;;;;;5042128;28;20464;-85
2021/03/29 09:25:47;;;;;;;8.60;2.43;;;13.90;1.00;;;;;;5040402;28;20573;-82
2021/03/29 09:30:50;;;;;;;7.67;4.20;;;13.70;1.00;;;;;;5037742;28;21190;-83
2021/03/29 09:33:17;;;;;;;4.87;2.60;;;13.80;1.00;;;;;;5031986;28;20491;-83
2021/03/29 09:35:44;;;;;;;9.53;2.53;;;13.80;1.00;;;;;;5040025;28;20461;-82
2021/03/29 09:38:12;;;;;;;4.70;1.97;;;14.00;1.00;;;;;;5042177;28;20507;-81
2021/03/29 09:40:37;;;;;;;4.63;3.27;;;14.30;1.00;;;;;;5040205;28;20489;-83
2021/03/29 09:43:04;;;;;;;8.40;2.57;;;14.30;1.00;;;;;;5038571;28;20505;-84
2021/03/29 09:45:32;;;;;;;6.83;2.63;;;14.60;1.00;;;;;;5049152;28;20961;-83
2021/03/29 09:48:05;;;;;;;5.37;2.50;;;14.70;1.00;;;;;;5041017;28;20473;-84
2021/03/29 09:50:35;;;;;;;11.73;3.63;;;14.80;1.00;;;;;;5040497;28;20452;-83
2021/03/29 09:53:18;;;;;;;8.70;2.50;;;15.00;1.00;;;;;;5039156;28;20971;-83
2021/03/29 09:55:48;;;;;;;8.80;2.50;;;15.00;1.00;;;;;;5042209;28;21071;-83
2021/03/29 09:58:29;;;;;;;9.50;2.80;;;15.30;1.00;;;;;;5038049;28;20627;-84
2021/03/29 10:00:58;;;;;;;6.80;2.80;;;15.40;1.00;;;;;;5039314;28;21668;-82
2021/03/29 10:03:25;;;;;;;7.37;2.60;;;15.40;1.00;;;;;;5037367;28;20473;-84
2021/03/29 10:05:52;;;;;;;5.97;2.70;;;15.50;1.00;;;;;;5051913;28;20471;-84
2021/03/29 10:08:32;;;;;;;8.50;2.67;;;15.40;1.00;;;;;;5041595;28;20439;-83
2021/03/29 10:11:06;;;;;;;5.57;2.60;;;15.40;1.00;;;;;;5041609;28;21013;-83
2021/03/29 10:13:42;;;;;;;10.03;2.97;;;15.10;1.00;;;;;;5039284;28;20486;-83
2021/03/29 10:16:21;;;;;;;5.23;2.50;;;15.20;1.00;;;;;;5046200;28;20455;-83
2021/03/29 10:19:00;;;;;;;6.50;2.70;;;15.60;1.00;;;;;;5048579;28;20459;-84
2021/03/29 10:21:26;;;;;;;6.80;2.33;;;15.80;1.00;;;;;;5041878;28;20489;-83
2021/03/29 10:24:14;;;;;;;8.57;2.17;;;15.80;1.00;;;;;;5042889;28;21123;-83
2021/03/29 10:26:53;;;;;;;5.50;2.53;;;15.80;1.00;;;;;;5041459;28;20447;-83
2021/03/29 10:29:36;;;;;;;6.40;2.60;;;16.00;1.00;;;;;;5043335;28;20450;-83
2021/03/29 10:32:19;;;;;;;4.70;2.50;;;16.10;1.00;;;;;;5043414;28;20468;-84
2021/03/29 10:34:48;;;;;;;4.00;2.33;;;16.30;1.00;;;;;;5041820;28;20456;-83
2021/03/29 10:37:24;;;;;;;3.57;2.33;;;16.30;1.00;;;;;;5033122;28;20490;-84
2021/03/29 10:39:51;;;;;;;9.13;2.60;;;16.30;1.00;;;;;;5043409;28;20924;-84
2021/03/29 10:42:17;;;;;;;5.13;2.30;;;16.50;1.00;;;;;;5038148;28;20830;-83
2021/03/29 10:44:43;;;;;;;6.60;2.40;;;16.60;1.00;;;;;;5042430;28;20584;-84
2021/03/29 10:47:10;;;;;;;3.80;2.20;;;16.70;1.00;;;;;;5043766;28;20542;-83
2021/03/29 10:49:36;;;;;;;6.70;1.90;;;16.80;1.00;;;;;;5037272;28;24995;-82
2021/03/29 10:52:02;;;;;;;4.53;2.23;;;17.00;1.00;;;;;;5036016;28;20460;-82
2021/03/29 10:54:29;;;;;;;3.80;1.90;;;16.90;1.00;;;;;;5039663;28;20313;-82
2021/03/29 10:56:54;;;;;;;2.80;1.47;;;17.00;1.00;;;;;;5034511;28;20871;-82
2021/03/29 10:59:20;;;;;;;4.17;1.73;;;17.30;1.00;;;;;;5038879;28;20460;-81
2021/03/29 11:01:46;;;;;;;4.30;1.87;;;17.50;1.00;;;;;;5035338;28;20553;-82
2021/03/29 11:04:11;;;;;;;4.33;1.73;;;17.50;1.00;;;;;;5043169;28;20196;-84
2021/03/29 11:06:37;;;;;;;11.03;2.50;;;17.70;1.00;;;;;;5056310;28;20228;-84
2021/03/29 11:09:03;;;;;;;6.63;1.40;;;17.60;1.00;;;;;;5044596;28;20191;-84
2021/03/29 11:11:28;;;;;;;3.87;1.33;;;17.80;1.00;;;;;;5035637;28;20210;-84
2021/03/29 11:13:54;;;;;;;7.20;1.70;;;18.00;1.00;;;;;;5040717;28;20235;-84
2021/03/29 11:16:22;;;;;;;4.90;1.67;;;18.20;1.00;;;;;;5037025;28;20200;-85
2021/03/29 11:18:47;;;;;;;8.47;2.30;;;18.30;1.00;;;;;;5043256;28;20233;-83
2021/03/29 11:21:13;;;;;;;5.00;1.77;;;18.00;1.00;;;;;;5040681;28;20498;-83
2021/03/29 11:23:39;;;;;;;6.50;2.60;;;18.00;1.00;;;;;;5039633;28;20190;-82
2021/03/29 11:26:04;;;;;;;6.67;1.50;;;18.10;1.00;;;;;;5041245;28;20177;-83
2021/03/29 11:28:31;;;;;;;3.43;1.60;;;18.30;1.00;;;;;;5042087;28;20212;-84
2021/03/29 11:30:56;;;;;;;3.97;1.70;;;18.30;1.00;;;;;;5038135;28;20323;-82
2021/03/29 11:33:22;;;;;;;4.60;1.80;;;18.40;1.00;;;;;;5043788;28;20492;-82
2021/03/29 11:35:48;;;;;;;4.03;1.70;;;18.40;1.00;;;;;;5038562;28;20935;-83
2021/03/29 11:38:14;;;;;;;2.10;1.30;;;18.40;1.00;;;;;;5047452;28;20190;-84
2021/03/29 11:40:40;;;;;;;3.77;1.57;;;18.50;1.00;;;;;;5037414;28;20191;-82
2021/03/29 11:43:05;;;;;;;6.03;1.50;;;18.40;1.00;;;;;;5039440;28;20498;-83
2021/03/29 11:45:31;;;;;;;3.63;1.50;;;18.40;1.00;;;;;;5047791;28;20182;-83
2021/03/29 11:47:57;;;;;;;5.27;1.97;;;18.50;1.00;;;;;;5042585;28;21086;-83
2021/03/29 11:50:23;;;;;;;2.70;1.37;;;18.80;1.00;;;;;;5038343;28;20267;-82
2021/03/29 11:52:48;;;;;;;7.50;1.80;;;18.80;1.00;;;;;;5042826;28;20210;-82
2021/03/29 11:55:14;;;;;;;7.90;2.10;;;18.80;1.00;;;;;;5038802;28;20194;-81
2021/03/29 11:57:41;;;;;;;7.77;1.77;;;18.90;1.00;;;;;;5043500;28;20218;-82
2021/03/29 12:00:13;;;;;;;3.23;1.40;;;18.80;1.00;;;;;;5057677;28;20479;-83
2021/03/29 12:02:43;;;;;;;8.40;1.93;;;18.90;1.00;;;;;;5048006;28;20451;-83
2021/03/29 12:05:20;;;;;;;4.30;2.00;;;19.00;1.00;;;;;;5051648;28;21083;-83
2021/03/29 12:08:14;;;;;;;3.87;1.80;;;18.90;1.00;;;;;;5051657;28;20458;-83
2021/03/29 12:13:20;;;;;;;4.60;2.10;;;19.20;1.00;;;;;;5043236;28;20464;-82
2021/03/29 12:15:49;;;;;;;5.17;1.83;;;19.20;1.00;;;;;;5041938;28;20480;-82
2021/03/29 12:18:19;;;;;;;7.57;2.20;;;19.00;1.00;;;;;;5043349;28;20186;-82
2021/03/29 12:20:45;;;;;;;5.50;2.50;;;19.20;1.00;;;;;;5045026;28;21247;-83
2021/03/29 12:23:13;;;;;;;3.93;1.90;;;19.30;1.00;;;;;;5042620;28;20476;-82
2021/03/29 12:25:40;;;;;;;6.17;1.70;;;19.10;1.00;;;;;;5045921;28;20454;-82
2021/03/29 12:28:08;;;;;;;7.27;1.93;;;19.20;1.00;;;;;;5042312;28;20972;-80
2021/03/29 12:30:37;;;;;;;12.20;3.33;;;19.30;1.00;;;;;;5042692;28;20463;-82
2021/03/29 12:33:04;;;;;;;3.03;1.87;;;19.20;1.00;;;;;;5036492;28;20595;-82
2021/03/29 12:35:30;;;;;;;2.43;1.73;;;19.30;1.00;;;;;;5051244;28;20505;-82
2021/03/29 12:37:57;;;;;;;4.10;1.50;;;19.30;1.00;;;;;;5039024;28;20471;-82
2021/03/29 12:40:25;;;;;;;3.50;2.20;;;19.30;1.00;;;;;;5034824;28;21039;-87
2021/03/29 12:43:05;;;;;;;6.33;2.23;;;19.30;1.00;;;;;;5040937;28;20538;-79
2021/03/29 12:45:33;;;;;;;4.00;1.77;;;19.30;1.00;;;;;;5049886;28;20472;-80
2021/03/29 12:48:06;;;;;;;5.60;1.73;;;19.40;1.00;;;;;;5041289;28;20456;-80
2021/03/29 12:50:34;;;;;;;5.90;1.87;;;19.40;1.00;;;;;;5042563;28;20451;-80
2021/03/29 12:53:00;;;;;;;6.03;1.97;;;19.50;1.00;;;;;;5044422;28;20476;-81
2021/03/29 12:55:25;;;;;;;3.70;1.80;;;19.50;1.00;;;;;;5044817;28;20556;-82
2021/03/29 12:57:57;;;;;;;7.50;4.03;;;19.50;1.00;;;;;;5038343;28;20445;-82
2021/03/29 13:00:25;;;;;;;7.90;2.20;;;19.50;1.00;;;;;;5036073;28;20204;-83
2021/03/29 13:02:56;;;;;;;7.37;2.00;;;19.50;1.00;;;;;;5032012;28;20445;-82
2021/03/29 13:05:27;;;;;;;5.23;2.10;;;19.60;1.00;;;;;;5041131;28;20444;-83
2021/03/29 13:08:07;;;;;;;4.17;1.93;;;19.70;1.00;;;;;;5045958;28;20480;-84
2021/03/29 13:11:04;;;;;;;4.33;2.50;;;19.60;1.00;;;;;;5036852;28;20441;-82
2021/03/29 13:13:21;;;;;;;3.70;1.80;;;19.70;1.00;;;;;;5032348;28;20476;-84
2021/03/29 13:15:47;;;;;;;2.93;1.60;;;19.80;1.00;;;;;;5037090;28;20448;-83
2021/03/29 13:18:18;;;;;;;3.97;1.70;;;19.80;1.00;;;;;;5040447;28;21141;-83
2021/03/29 13:20:44;;;;;;;6.00;2.20;;;20.10;1.00;;;;;;5042620;28;20174;-82
2021/03/29 13:23:10;;;;;;;4.77;2.50;;;20.20;1.00;;;;;;5045438;28;21024;-83